Date,TemperatureHighF,TemperatureAvgF,TemperatureLowF,DewpointHighF,DewpointAvgF,DewpointLowF,HumidityHigh,HumidityAvg,HumidityLow,PressureMaxIn,PressureMinIn,WindSpeedMaxMPH,WindSpeedAvgMPH,GustSpeedMaxMPH,PrecipitationSumIn
2013-1-1,55,52,48,54,51,44,99,94,76,30.54,30.34,11,1,11,1.52
2013-1-2,48,41,38,46,38,35,96,91,87,30.66,30.47,11,1,13,0.00
2013-1-3,45,37,29,35,31,27,94,82,53,30.84,30.63,11,1,11,0.00
2013-1-4,52,36,25,32,27,23,96,75,33,30.92,30.81,10,0,10,0.00
2013-1-5,50,38,29,40,32,26,96,81,42,30.89,30.73,5,0,5,0.08
2013-1-6,54,43,36,42,39,34,96,88,63,30.75,30.66,7,0,8,0.00
2013-1-7,59,40,27,36,32,26,98,78,39,30.82,30.72,8,0,9,0.00
2013-1-8,65,52,38,51,43,34,86,71,57,30.78,30.66,7,0,7,0.00
2013-1-9,63,57,52,62,54,50,99,90,81,30.79,30.69,6,1,6,0.07
2013-1-10,68,65,62,65,63,61,98,94,87,30.74,30.40,16,1,17,0.12
2013-1-11,68,65,62,66,64,61,99,94,86,30.54,30.46,7,0,8,0.49
2013-1-12,74,69,65,67,64,60,96,86,74,30.51,30.37,7,1,7,0.01
2013-1-13,72,65,50,67,63,49,98,92,82,30.50,30.31,14,1,17,1.64
2013-1-14,50,43,38,49,42,36,99,97,94,30.65,30.47,9,1,12,0.47
2013-1-15,50,46,42,50,45,41,99,98,98,30.56,30.36,5,0,5,0.16
2013-1-16,49,44,42,49,43,41,99,97,95,30.52,30.36,7,1,7,0.00
2013-1-17,42,38,33,42,37,32,99,94,87,30.82,30.32,18,2,18,0.00
2013-1-18,55,38,29,39,32,28,99,83,42,31.04,30.82,7,0,7,0.00
2013-1-19,61,40,26,37,32,26,98,77,36,30.90,30.68,4,0,6,0.00
2013-1-20,66,43,29,43,36,28,98,80,41,30.72,30.57,9,0,10,0.00
2013-1-21,54,40,31,43,32,23,99,75,40,30.70,30.56,12,1,12,0.00
2013-1-22,50,35,26,28,23,18,86,62,35,30.86,30.69,10,1,10,0.00
2013-1-23,57,43,28,42,34,24,89,70,41,30.87,30.67,5,0,5,0.00
2013-1-24,59,50,44,46,36,23,93,61,34,30.76,30.64,11,1,11,0.00
2013-1-25,66,54,43,56,41,24,97,64,42,30.72,30.51,12,1,12,0.16
2013-1-26,58,49,41,51,42,35,96,79,44,30.75,30.58,7,1,7,0.01
2013-1-27,62,54,44,43,38,34,82,57,38,30.80,30.71,11,1,11,0.00
2013-1-28,68,56,48,56,50,40,97,80,61,30.76,30.62,9,1,11,0.00
2013-1-29,72,63,47,66,60,46,99,91,80,30.62,30.22,9,1,9,0.00
2013-1-30,71,57,40,68,54,31,98,89,67,30.41,29.99,14,2,15,2.03
2013-1-31,54,41,32,35,30,26,89,67,36,30.66,30.41,12,1,13,0.00